Time;durP1;ratioP1;P1;durP2;ratioP2;P2;SDS_P1;SDS_P2;PMS_P1;PMS_P2;Temp;Humidity;BMP_temperature;BMP_pressure;BME280_temperature;BME280_humidity;BME280_pressure;Samples;Min_cycle;Max_cycle;Signal;HPM_P1;HPM_P2
2022/11/14 00:02:15;;;;;;;;;;;;;;;9.80;66.60;102356.41;5073494;28;20375;-54
2022/11/14 00:04:44;;;;;;;;;;;;;;;9.82;66.60;102357.25;5094616;28;19920;-54
2022/11/14 00:07:09;;;;;;;;;;;;;;;9.80;66.63;102348.53;5084087;28;20006;-54
2022/11/14 00:09:37;;;;;;;;;;;;;;;9.82;66.63;102358.13;5086278;28;19971;-54
2022/11/14 00:12:02;;;;;;;;;;;;;;;9.80;66.35;102351.16;5084834;28;19973;-54
2022/11/14 00:14:28;;;;;;;;;;;;;;;9.77;66.61;102339.81;5087062;28;20015;-54
2022/11/14 00:16:53;;;;;;;;;;;;;;;9.76;66.63;102339.88;5087244;28;20574;-54
2022/11/14 00:19:18;;;;;;;;;;;;;;;9.73;66.76;102332.94;5079851;28;19920;-54
2022/11/14 00:21:44;;;;;;;;;;;;;;;9.73;66.87;102332.94;5085853;28;20014;-54
2022/11/14 00:24:09;;;;;;;;;;;;;;;9.74;66.81;102332.06;5095010;28;20299;-54
2022/11/14 00:26:34;;;;;;;;;;;;;;;9.74;66.86;102332.06;5076509;28;19924;-54
2022/11/14 00:28:59;;;;;;;;;;;;;;;9.79;66.94;102331.91;5084361;28;19960;-54
2022/11/14 00:31:25;;;;;;;;;;;;;;;9.80;66.86;102330.13;5087268;28;20302;-54
2022/11/14 00:33:50;;;;;;;;;;;;;;;9.77;66.75;102329.31;5087735;28;19965;-55
2022/11/14 00:36:15;;;;;;;;;;;;;;;9.72;66.98;102325.97;5086246;28;20019;-53
2022/11/14 00:38:41;;;;;;;;;;;;;;;9.75;67.09;102319.75;5088922;28;20557;-54
2022/11/14 00:41:06;;;;;;;;;;;;;;;9.74;66.99;102321.53;5087916;28;19924;-54
2022/11/14 00:43:31;;;;;;;;;;;;;;;9.75;67.19;102312.75;5088612;28;19920;-54
2022/11/14 00:45:56;;;;;;;;;;;;;;;9.70;67.07;102322.53;5088276;28;20296;-56
2022/11/14 00:48:22;;;;;;;;;;;;;;;9.72;67.41;102319.84;5079709;28;19924;-54
2022/11/14 00:50:47;;;;;;;;;;;;;;;9.74;67.17;102313.66;5085009;28;19932;-53
2022/11/14 00:53:12;;;;;;;;;;;;;;;9.72;67.22;102322.47;5088999;28;19970;-54
2022/11/14 00:55:38;;;;;;;;;;;;;;;9.75;67.43;102325.88;5086159;28;19916;-53
2022/11/14 00:58:04;;;;;;;;;;;;;;;9.72;67.49;102315.47;5087349;28;19920;-54
2022/11/14 01:00:29;;;;;;;;;;;;;;;9.71;67.55;102315.47;5084164;28;19918;-54
2022/11/14 01:02:55;;;;;;;;;;;;;;;9.71;67.52;102324.25;5086454;28;19970;-54
2022/11/14 01:05:22;;;;;;;;;;;;;;;9.74;67.63;102315.41;5080882;28;20009;-54
2022/11/14 01:07:47;;;;;;;;;;;;;;;9.70;67.71;102306.75;5083086;28;19908;-54
2022/11/14 01:10:12;;;;;;;;;;;;;;;9.73;67.78;102316.31;5080098;28;19946;-53
2022/11/14 01:12:37;;;;;;;;;;;;;;;9.74;67.79;102313.66;5086304;28;20019;-54
2022/11/14 01:15:03;;;;;;;;;;;;;;;9.70;67.76;102306.75;5087333;28;19939;-54
2022/11/14 01:17:28;;;;;;;;;;;;;;;9.75;67.86;102298.72;5082695;28;19913;-53
2022/11/14 01:19:54;;;;;;;;;;;;;;;9.77;67.74;102295.13;5082553;28;20416;-54
2022/11/14 01:22:19;;;;;;;;;;;;;;;9.77;67.95;102286.41;5084397;28;20299;-54
2022/11/14 01:24:44;;;;;;;;;;;;;;;9.75;67.77;102283.81;5087759;28;19916;-54
2022/11/14 01:27:09;;;;;;;;;;;;;;;9.76;68.00;102284.66;5084012;28;19927;-55
2022/11/14 01:29:35;;;;;;;;;;;;;;;9.73;68.15;102280.38;5084554;28;19943;-54
2022/11/14 01:32:00;;;;;;;;;;;;;;;9.72;68.07;102272.50;5084374;28;19924;-54
2022/11/14 01:34:25;;;;;;;;;;;;;;;9.72;68.15;102268.13;5082160;28;19928;-54
2022/11/14 01:36:51;;;;;;;;;;;;;;;9.74;68.12;102254.94;5084211;28;19924;-53
2022/11/14 01:39:16;;;;;;;;;;;;;;;9.74;68.14;102250.56;5083845;28;19920;-54
2022/11/14 01:41:41;;;;;;;;;;;;;;;9.74;68.18;102240.03;5081255;28;20466;-54
2022/11/14 01:44:15;;;;;;;;;;;;;;;9.72;68.26;102238.34;5081578;28;19922;-53
2022/11/14 01:46:41;;;;;;;;;;;;;;;9.71;68.44;102240.13;5079799;28;19916;-54
2022/11/14 01:49:12;;;;;;;;;;;;;;;9.73;68.43;102238.31;5070611;28;20018;-54
2022/11/14 01:51:43;;;;;;;;;;;;;;;9.73;68.56;102227.81;5079870;28;19919;-54
2022/11/14 01:54:10;;;;;;;;;;;;;;;9.76;68.37;102227.69;5081027;28;19923;-54
2022/11/14 01:56:41;;;;;;;;;;;;;;;9.73;68.42;102225.19;5079303;28;19916;-54
2022/11/14 01:59:08;;;;;;;;;;;;;;;9.76;68.51;102222.44;5087830;28;20295;-53
2022/11/14 02:01:35;;;;;;;;;;;;;;;9.73;68.49;102219.91;5088838;28;19924;-54
2022/11/14 02:04:02;;;;;;;;;;;;;;;9.74;68.62;102221.66;5087285;28;19961;-54
2022/11/14 02:06:29;;;;;;;;;;;;;;;9.74;68.57;102207.63;5085809;28;19927;-54
2022/11/14 02:08:55;;;;;;;;;;;;;;;9.72;68.65;102215.56;5082909;28;19920;-51
2022/11/14 02:11:20;;;;;;;;;;;;;;;9.72;68.80;102210.31;5090033;28;20284;-56
2022/11/14 02:13:46;;;;;;;;;;;;;;;9.71;68.95;102212.97;5084154;28;19990;-53
2022/11/14 02:16:11;;;;;;;;;;;;;;;9.70;68.93;102208.63;5086786;28;19952;-56
2022/11/14 02:18:36;;;;;;;;;;;;;;;9.68;69.09;102203.41;5085462;28;19940;-54
2022/11/14 02:21:02;;;;;;;;;;;;;;;9.70;69.09;102205.97;5065329;28;20014;-52
2022/11/14 02:23:28;;;;;;;;;;;;;;;9.69;69.07;102199.00;5085748;28;19923;-53
2022/11/14 02:25:54;;;;;;;;;;;;;;;9.69;69.19;102199.88;5089923;28;19934;-52
2022/11/14 02:28:20;;;;;;;;;;;;;;;9.72;69.03;102193.66;5089596;28;19916;-55
2022/11/14 02:30:46;;;;;;;;;;;;;;;9.74;68.87;102192.72;5085532;28;20428;-53
2022/11/14 02:33:11;;;;;;;;;;;;;;;9.73;69.03;102187.50;5089615;28;20019;-54
2022/11/14 02:35:36;;;;;;;;;;;;;;;9.72;68.98;102184.03;5087065;28;19935;-53
2022/11/14 02:38:02;;;;;;;;;;;;;;;9.73;69.19;102174.34;5088002;28;19938;-56
2022/11/14 02:40:27;;;;;;;;;;;;;;;9.76;69.06;102164.59;5086793;28;19942;-54
2022/11/14 02:42:52;;;;;;;;;;;;;;;9.78;69.08;102164.56;5091221;28;19920;-55
2022/11/14 02:45:19;;;;;;;;;;;;;;;9.77;69.02;102155.81;5090218;28;19928;-53
2022/11/14 02:47:45;;;;;;;;;;;;;;;9.73;68.78;102150.69;5089521;28;20314;-55
2022/11/14 02:50:10;;;;;;;;;;;;;;;9.73;69.29;102158.59;5086751;28;20406;-54
2022/11/14 02:52:35;;;;;;;;;;;;;;;9.75;69.17;102151.50;5085815;28;19997;-54
2022/11/14 02:55:01;;;;;;;;;;;;;;;9.73;69.13;102153.31;5086158;28;19920;-54
2022/11/14 02:57:26;;;;;;;;;;;;;;;9.72;69.26;102156.88;5082135;28;19928;-55
2022/11/14 02:59:51;;;;;;;;;;;;;;;9.70;69.33;102149.03;5084374;28;19932;-53
2022/11/14 03:02:17;;;;;;;;;;;;;;;9.69;69.27;102149.94;5085719;28;20498;-54
2022/11/14 03:04:42;;;;;;;;;;;;;;;9.71;69.38;102152.50;5078432;28;20566;-55
2022/11/14 03:07:07;;;;;;;;;;;;;;;9.68;69.13;102144.75;5091884;28;20354;-54
2022/11/14 03:09:32;;;;;;;;;;;;;;;9.65;69.33;102140.44;5084337;28;19920;-54
2022/11/14 03:11:58;;;;;;;;;;;;;;;9.64;69.27;102138.69;5086256;28;19934;-56
2022/11/14 03:14:23;;;;;;;;;;;;;;;9.70;69.00;102138.53;5089301;28;20011;-52
2022/11/14 03:16:48;;;;;;;;;;;;;;;9.68;68.84;102128.97;5083894;28;19935;-55
2022/11/14 03:19:14;;;;;;;;;;;;;;;9.69;69.11;102134.16;5087334;28;19924;-54
2022/11/14 03:21:39;;;;;;;;;;;;;;;9.67;68.99;102132.50;5082509;28;21225;-56
2022/11/14 03:24:05;;;;;;;;;;;;;;;9.67;69.05;102128.09;5084730;28;19919;-57
2022/11/14 03:26:30;;;;;;;;;;;;;;;9.65;68.94;102135.16;5087489;28;20437;-55
2022/11/14 03:28:55;;;;;;;;;;;;;;;9.65;69.09;102132.53;5086986;28;19926;-54
2022/11/14 03:31:20;;;;;;;;;;;;;;;9.64;68.92;102136.06;5084736;28;20441;-54
2022/11/14 03:33:46;;;;;;;;;;;;;;;9.61;69.19;102129.16;5084014;28;20006;-54
2022/11/14 03:36:11;;;;;;;;;;;;;;;9.62;68.96;102127.38;5080687;28;19924;-55
2022/11/14 03:38:36;;;;;;;;;;;;;;;9.63;68.91;102130.88;5087956;28;20313;-54
2022/11/14 03:41:02;;;;;;;;;;;;;;;9.62;68.92;102127.38;5093504;28;19967;-54
2022/11/14 03:43:31;;;;;;;;;;;;;;;9.63;68.90;102120.38;5082127;28;19931;-55
2022/11/14 03:45:57;;;;;;;;;;;;;;;9.61;68.94;102123.03;5083011;28;19920;-55
2022/11/14 03:48:22;;;;;;;;;;;;;;;9.58;69.24;102125.78;5088013;28;19934;-53
2022/11/14 03:50:47;;;;;;;;;;;;;;;9.58;69.20;102116.09;5084477;28;19950;-54
2022/11/14 03:53:13;;;;;;;;;;;;;;;9.56;69.06;102109.19;5081317;28;19923;-55
2022/11/14 03:55:39;;;;;;;;;;;;;;;9.56;69.25;102114.44;5083315;28;19920;-52
2022/11/14 03:58:04;;;;;;;;;;;;;;;9.54;68.98;102101.34;5083070;28;19927;-54
2022/11/14 04:00:29;;;;;;;;;;;;;;;9.54;69.01;102100.50;5082873;28;19924;-52
2022/11/14 04:02:56;;;;;;;;;;;;;;;9.52;69.08;102097.06;5086389;28;19966;-52
2022/11/14 04:05:21;;;;;;;;;;;;;;;9.56;69.12;102098.69;5084507;28;20398;-52
2022/11/14 04:07:46;;;;;;;;;;;;;;;9.58;68.85;102102.13;5094649;28;19922;-54
2022/11/14 04:10:12;;;;;;;;;;;;;;;9.60;68.72;102097.69;5086439;28;19917;-55
2022/11/14 04:12:37;;;;;;;;;;;;;;;9.54;69.02;102096.09;5087071;28;20363;-54
2022/11/14 04:15:05;;;;;;;;;;;;;;;9.56;68.89;102098.69;5086841;28;20011;-54
2022/11/14 04:17:31;;;;;;;;;;;;;;;9.58;68.98;102089.84;5081772;28;20011;-56
2022/11/14 04:19:56;;;;;;;;;;;;;;;9.56;69.06;102088.16;5079245;28;19932;-53
2022/11/14 04:22:21;;;;;;;;;;;;;;;9.48;69.12;102090.16;5085851;28;20466;-54
2022/11/14 04:24:47;;;;;;;;;;;;;;;9.43;69.20;102088.56;5090332;28;19924;-54
2022/11/14 04:27:12;;;;;;;;;;;;;;;9.43;69.30;102085.94;5073442;28;20395;-55
2022/11/14 04:29:37;;;;;;;;;;;;;;;9.46;69.32;102077.94;5087522;28;19962;-53
2022/11/14 04:32:03;;;;;;;;;;;;;;;9.44;69.48;102085.03;5089235;28;19912;-56
2022/11/14 04:34:28;;;;;;;;;;;;;;;9.46;69.30;102085.81;5079485;28;20334;-54
2022/11/14 04:36:53;;;;;;;;;;;;;;;9.47;69.28;102068.31;5088072;28;19961;-54
2022/11/14 04:39:19;;;;;;;;;;;;;;;9.50;68.90;102077.84;5084698;28;19943;-55
2022/11/14 04:41:44;;;;;;;;;;;;;;;9.48;69.30;102069.16;5082040;28;19924;-56
2022/11/14 04:44:09;;;;;;;;;;;;;;;9.44;69.12;102076.28;5086947;28;19956;-57
2022/11/14 04:46:34;;;;;;;;;;;;;;;9.44;69.16;102071.91;5082309;28;19916;-56
2022/11/14 04:49:00;;;;;;;;;;;;;;;9.42;69.21;102065.81;5078714;28;19929;-56
2022/11/14 04:51:25;;;;;;;;;;;;;;;9.38;69.39;102053.69;5080817;28;19935;-54
2022/11/14 04:53:50;;;;;;;;;;;;;;;9.39;69.52;102055.41;5082889;28;20005;-54
2022/11/14 04:56:16;;;;;;;;;;;;;;;9.39;69.54;102055.41;5082178;28;20069;-52
2022/11/14 04:58:41;;;;;;;;;;;;;;;9.41;69.27;102052.72;5081445;28;20011;-53
2022/11/14 05:01:10;;;;;;;;;;;;;;;9.40;69.28;102051.00;5081779;28;19967;-54
2022/11/14 05:03:36;;;;;;;;;;;;;;;9.34;69.58;102049.44;5078750;28;20020;-53
2022/11/14 05:06:02;;;;;;;;;;;;;;;9.30;69.81;102048.66;5084977;28;20022;-53
2022/11/14 05:08:27;;;;;;;;;;;;;;;9.28;69.87;102054.91;5085071;28;19923;-53
2022/11/14 05:10:52;;;;;;;;;;;;;;;9.30;69.73;102046.03;5086534;28;19956;-54
2022/11/14 05:13:18;;;;;;;;;;;;;;;9.32;69.88;102038.09;5063399;28;19973;-55
2022/11/14 05:15:43;;;;;;;;;;;;;;;9.30;69.86;102040.78;5084987;28;19962;-55
2022/11/14 05:18:08;;;;;;;;;;;;;;;9.32;69.84;102027.59;5072816;28;19921;-53
2022/11/14 05:20:34;;;;;;;;;;;;;;;9.33;70.03;102023.22;5072869;28;19928;-56
2022/11/14 05:22:59;;;;;;;;;;;;;;;9.34;69.79;102025.78;5075120;28;19920;-53
2022/11/14 05:25:24;;;;;;;;;;;;;;;9.33;69.71;102033.72;5079760;28;19927;-55
2022/11/14 05:27:50;;;;;;;;;;;;;;;9.29;69.87;102030.34;5081495;28;19984;-54
2022/11/14 05:30:15;;;;;;;;;;;;;;;9.31;70.09;102033.75;5060828;28;19929;-54
2022/11/14 05:32:40;;;;;;;;;;;;;;;9.30;70.11;102030.28;5049540;28;19928;-55
2022/11/14 05:35:06;;;;;;;;;;;;;;;9.29;70.14;102033.81;5076861;28;19931;-54
2022/11/14 05:37:32;;;;;;;;;;;;;;;9.30;70.04;102037.31;5081575;28;19924;-56
2022/11/14 05:39:58;;;;;;;;;;;;;;;9.28;70.28;102029.47;5086946;28;19927;-53
2022/11/14 05:42:23;;;;;;;;;;;;;;;9.31;70.26;102033.75;5078411;28;19932;-56
2022/11/14 05:44:48;;;;;;;;;;;;;;;9.36;70.24;102033.63;5082021;28;20318;-53
2022/11/14 05:47:14;;;;;;;;;;;;;;;9.38;70.12;102032.66;5081056;28;19916;-54
2022/11/14 05:49:39;;;;;;;;;;;;;;;9.36;69.97;102012.63;5065799;28;19925;-53
2022/11/14 05:52:04;;;;;;;;;;;;;;;9.37;70.07;102015.19;5084981;28;19920;-53
2022/11/14 05:54:29;;;;;;;;;;;;;;;9.40;69.91;102017.72;5083060;28;19928;-56
2022/11/14 05:56:55;;;;;;;;;;;;;;;9.40;69.79;102016.84;5063529;28;19970;-53
2022/11/14 05:59:20;;;;;;;;;;;;;;;9.44;69.76;102015.84;5082977;28;19924;-54
2022/11/14 06:01:45;;;;;;;;;;;;;;;9.40;69.75;102015.09;5085805;28;19953;-54
2022/11/14 06:04:16;;;;;;;;;;;;;;;9.39;69.79;102016.00;5093646;28;19928;-53
2022/11/14 06:06:41;;;;;;;;;;;;;;;9.34;69.95;102020.53;5085168;28;20405;-53
2022/11/14 06:09:07;;;;;;;;;;;;;;;9.34;70.02;102017.91;5085261;28;19948;-52
2022/11/14 06:11:33;;;;;;;;;;;;;;;9.36;69.95;102031.84;5092277;28;19920;-54
2022/11/14 06:13:58;;;;;;;;;;;;;;;9.37;70.07;102015.19;5098418;28;19920;-53
2022/11/14 06:16:23;;;;;;;;;;;;;;;9.44;69.84;102036.88;5083715;28;19920;-56
2022/11/14 06:18:51;;;;;;;;;;;;;;;9.46;69.73;102035.91;5091379;28;19912;-53
2022/11/14 06:21:17;;;;;;;;;;;;;;;9.44;69.84;102037.75;5074421;28;19921;-53
2022/11/14 06:23:44;;;;;;;;;;;;;;;9.45;69.92;102039.44;5080285;28;19939;-53
2022/11/14 06:26:13;;;;;;;;;;;;;;;9.44;69.93;102045.63;5087243;28;19920;-53
2022/11/14 06:28:39;;;;;;;;;;;;;;;9.43;69.93;102040.41;5091466;28;19916;-57
2022/11/14 06:31:05;;;;;;;;;;;;;;;9.43;69.95;102043.03;5091281;28;20410;-53
2022/11/14 06:33:34;;;;;;;;;;;;;;;9.42;70.00;102044.81;5093525;28;19912;-53
2022/11/14 06:36:00;;;;;;;;;;;;;;;9.44;69.84;102042.13;5092647;28;19912;-54
2022/11/14 06:38:26;;;;;;;;;;;;;;;9.44;69.86;102045.63;5089262;28;20371;-55
2022/11/14 06:40:51;;;;;;;;;;;;;;;9.45;69.85;102051.72;5090401;28;19912;-54
2022/11/14 06:43:16;;;;;;;;;;;;;;;9.46;69.72;102051.66;5088033;28;19939;-53
2022/11/14 06:45:42;;;;;;;;;;;;;;;9.43;69.73;102051.78;5084957;28;20017;-53
2022/11/14 06:48:07;;;;;;;;;;;;;;;9.43;69.77;102050.91;5089438;28;20001;-53
2022/11/14 06:50:32;;;;;;;;;;;;;;;9.43;69.80;102046.53;5090595;28;20033;-53
2022/11/14 06:52:58;;;;;;;;;;;;;;;9.45;69.75;102051.72;5093219;28;19920;-54
2022/11/14 06:55:23;;;;;;;;;;;;;;;9.45;69.76;102051.72;5085859;28;19931;-54
2022/11/14 06:57:55;;;;;;;;;;;;;;;9.43;69.85;102043.91;5091770;28;19916;-53
2022/11/14 07:00:21;;;;;;;;;;;;;;;9.43;69.85;102048.28;5084555;28;19924;-55
2022/11/14 07:02:46;;;;;;;;;;;;;;;9.47;69.68;102047.28;5087119;28;19927;-55
2022/11/14 07:05:12;;;;;;;;;;;;;;;9.50;69.62;102041.06;5092582;28;19916;-52
2022/11/14 07:07:37;;;;;;;;;;;;;;;9.51;69.34;102042.78;5088747;28;19916;-53
2022/11/14 07:10:02;;;;;;;;;;;;;;;9.53;69.56;102033.09;5091647;28;19916;-54
2022/11/14 07:12:28;;;;;;;;;;;;;;;9.54;69.61;102032.19;5084473;28;20015;-53
2022/11/14 07:14:53;;;;;;;;;;;;;;;9.52;69.45;102029.59;5086377;28;19946;-54
2022/11/14 07:17:19;;;;;;;;;;;;;;;9.55;69.43;102033.91;5091022;28;19940;-53
2022/11/14 07:19:44;;;;;;;;;;;;;;;9.57;69.43;102024.19;5098517;28;19955;-56
2022/11/14 07:22:09;;;;;;;;;;;;;;;9.60;69.17;102034.63;5091043;28;20366;-53
2022/11/14 07:24:34;;;;;;;;;;;;;;;9.57;69.09;102018.94;5093037;28;19949;-51
2022/11/14 07:27:01;;;;;;;;;;;;;;;9.64;69.01;102030.94;5084120;28;19935;-54
2022/11/14 07:29:26;;;;;;;;;;;;;;;9.63;68.53;102028.38;5086814;28;19920;-54
2022/11/14 07:31:51;;;;;;;;;;;;;;;9.65;68.68;102023.94;5097542;28;19919;-53
2022/11/14 07:34:17;;;;;;;;;;;;;;;9.67;68.61;102022.97;5091679;28;20398;-53
2022/11/14 07:36:43;;;;;;;;;;;;;;;9.70;68.55;102022.88;5093171;28;19924;-56
2022/11/14 07:39:08;;;;;;;;;;;;;;;9.70;68.31;102022.88;5085795;28;19924;-54
2022/11/14 07:41:33;;;;;;;;;;;;;;;9.71;68.12;102024.59;5087806;28;19928;-54
2022/11/14 07:43:59;;;;;;;;;;;;;;;9.72;68.02;102023.69;5089246;28;19916;-53
2022/11/14 07:46:24;;;;;;;;;;;;;;;9.73;68.23;102017.53;5087008;28;20298;-54
2022/11/14 07:48:49;;;;;;;;;;;;;;;9.76;67.94;102022.66;5090592;28;19980;-53
2022/11/14 07:51:16;;;;;;;;;;;;;;;9.82;67.96;102012.84;5090978;28;19920;-53
2022/11/14 07:53:42;;;;;;;;;;;;;;;9.80;67.71;102010.28;5090916;28;20654;-53
2022/11/14 07:56:10;;;;;;;;;;;;;;;9.82;67.73;102004.97;5087629;28;19977;-53
2022/11/14 07:58:39;;;;;;;;;;;;;;;9.85;67.77;101999.59;5089083;28;19916;-55
2022/11/14 08:01:05;;;;;;;;;;;;;;;9.84;67.51;102004.00;5089095;28;19920;-54
2022/11/14 08:03:31;;;;;;;;;;;;;;;9.83;67.79;102006.69;5092527;28;19927;-55
2022/11/14 08:06:00;;;;;;;;;;;;;;;9.84;67.59;102004.00;5091353;28;20337;-55
2022/11/14 08:08:25;;;;;;;;;;;;;;;9.86;67.50;101996.06;5084556;28;19920;-54
2022/11/14 08:10:54;;;;;;;;;;;;;;;9.86;67.49;102007.44;5077617;28;19934;-58
2022/11/14 08:13:19;;;;;;;;;;;;;;;9.89;67.65;102003.84;5082478;28;19931;-54
2022/11/14 08:15:45;;;;;;;;;;;;;;;9.92;67.54;102006.34;5088308;28;19925;-55
2022/11/14 08:18:10;;;;;;;;;;;;;;;9.96;67.19;102002.72;5085886;28;20019;-54
2022/11/14 08:20:35;;;;;;;;;;;;;;;9.98;67.34;102005.31;5072725;28;19916;-54
2022/11/14 08:23:05;;;;;;;;;;;;;;;10.01;67.19;102000.78;5068470;28;19995;-56
2022/11/14 08:25:31;;;;;;;;;;;;;;;10.01;67.25;102006.03;5089753;28;19919;-54
2022/11/14 08:27:57;;;;;;;;;;;;;;;10.00;66.89;101999.06;5078898;22;20634;-58
2022/11/14 08:30:22;;;;;;;;;;;;;;;10.05;67.13;102004.16;5085157;28;19932;-57
2022/11/14 08:32:47;;;;;;;;;;;;;;;10.10;66.75;102007.50;5085646;28;20337;-59
2022/11/14 08:35:13;;;;;;;;;;;;;;;10.13;66.80;102001.25;5080615;28;19924;-57
2022/11/14 08:37:38;;;;;;;;;;;;;;;10.14;66.61;102000.34;5065144;28;19927;-58
2022/11/14 08:40:04;;;;;;;;;;;;;;;10.19;66.53;101998.44;5065336;28;19964;-57
2022/11/14 08:42:29;;;;;;;;;;;;;;;10.22;66.36;102003.53;5065023;28;19925;-58
2022/11/14 08:44:54;;;;;;;;;;;;;;;10.28;66.06;102003.34;5068231;28;19920;-60
2022/11/14 08:47:19;;;;;;;;;;;;;;;10.30;65.91;102001.50;5067028;28;20038;-58
2022/11/14 08:49:45;;;;;;;;;;;;;;;10.29;65.95;101996.28;5067920;28;20434;-57
2022/11/14 08:52:10;;;;;;;;;;;;;;;10.32;65.96;101994.44;5063397;28;19962;-57
2022/11/14 08:54:35;;;;;;;;;;;;;;;10.35;66.29;101993.44;5072221;28;19917;-57
2022/11/14 08:57:01;;;;;;;;;;;;;;;10.38;66.11;101988.13;5070333;28;19916;-57
2022/11/14 08:59:26;;;;;;;;;;;;;;;10.42;66.13;101999.38;5051188;28;19924;-59
2022/11/14 09:01:51;;;;;;;;;;;;;;;10.42;65.91;101991.47;5068621;28;19920;-57
2022/11/14 09:04:17;;;;;;;;;;;;;;;10.43;65.92;101995.81;5075467;28;19920;-59
2022/11/14 09:06:42;;;;;;;;;;;;;;;10.40;65.92;101998.56;5066989;28;19977;-56
2022/11/14 09:09:07;;;;;;;;;;;;;;;10.42;66.04;101988.84;5070593;28;19999;-57
2022/11/14 09:11:33;;;;;;;;;;;;;;;10.47;66.04;101990.38;5065532;28;20331;-58
2022/11/14 09:14:00;;;;;;;;;;;;;;;10.51;65.69;101983.25;5068549;28;19970;-58
2022/11/14 09:16:25;;;;;;;;;;;;;;;10.55;65.55;101986.63;5068488;28;19955;-58
2022/11/14 09:18:50;;;;;;;;;;;;;;;10.57;65.63;101977.75;5070397;28;19959;-57
2022/11/14 09:21:16;;;;;;;;;;;;;;;10.58;65.58;101979.47;5069786;28;19974;-59
2022/11/14 09:23:41;;;;;;;;;;;;;;;10.60;65.08;101974.13;5065841;28;20371;-59
2022/11/14 09:26:08;;;;;;;;;;;;;;;10.56;65.12;101981.28;5071221;28;20005;-60
2022/11/14 09:28:33;;;;;;;;;;;;;;;10.56;65.23;101972.56;5067019;28;20370;-57
2022/11/14 09:31:00;;;;;;;;;;;;;;;10.61;65.21;101974.09;5068429;28;20035;-57
2022/11/14 09:33:25;;;;;;;;;;;;;;;10.67;65.09;101967.72;5061388;28;19920;-58
2022/11/14 09:35:55;;;;;;;;;;;;;;;10.73;65.10;101971.91;5064950;28;19935;-57
2022/11/14 09:38:20;;;;;;;;;;;;;;;10.73;64.85;101966.63;5066481;28;19936;-57
2022/11/14 09:41:12;;;;;;;;;;;;;;;10.74;64.69;101957.81;5066917;28;20383;-57
2022/11/14 09:43:51;;;;;;;;;;;;;;;10.78;64.57;101962.06;5069526;28;19956;-57
2022/11/14 09:46:16;;;;;;;;;;;;;;;10.81;64.67;101960.16;5067717;28;19924;-58
2022/11/14 09:48:42;;;;;;;;;;;;;;;10.83;64.29;101962.72;5070743;28;20386;-57
2022/11/14 09:51:07;;;;;;;;;;;;;;;10.85;64.36;101960.03;5067741;28;19917;-58
2022/11/14 09:53:38;;;;;;;;;;;;;;;10.84;64.31;101956.53;5069456;28;20453;-58
2022/11/14 09:56:04;;;;;;;;;;;;;;;10.91;64.47;101955.38;5061662;28;19927;-58
2022/11/14 09:58:29;;;;;;;;;;;;;;;10.95;64.36;101956.09;5069351;28;19917;-56
2022/11/14 10:01:02;;;;;;;;;;;;;;;10.98;64.13;101943.66;5065256;28;19944;-58
2022/11/14 10:03:36;;;;;;;;;;;;;;;11.02;64.16;101946.19;5066333;28;19916;-57
2022/11/14 10:06:14;;;;;;;;;;;;;;;11.03;63.88;101945.25;5066397;28;19912;-57
2022/11/14 10:08:58;;;;;;;;;;;;;;;11.04;63.84;101933.81;5065044;28;19917;-57
2022/11/14 10:11:32;;;;;;;;;;;;;;;11.03;64.03;101943.50;5072109;28;19916;-59
2022/11/14 10:14:00;;;;;;;;;;;;;;;11.05;63.80;101925.00;5069988;28;19943;-57
2022/11/14 10:16:44;;;;;;;;;;;;;;;11.02;63.71;101914.56;5071316;28;20049;-57
2022/11/14 10:19:15;;;;;;;;;;;;;;;10.98;63.87;101904.16;5068050;28;20436;-60
2022/11/14 10:21:43;;;;;;;;;;;;;;;10.93;64.22;101913.19;5064381;28;20035;-57
2022/11/14 10:24:30;;;;;;;;;;;;;;;10.89;64.06;101904.53;5071768;28;19971;-57
2022/11/14 10:27:03;;;;;;;;;;;;;;;10.86;63.99;101909.94;5071130;28;19916;-58
2022/11/14 10:29:31;;;;;;;;;;;;;;;10.88;64.18;101908.09;5070612;28;19925;-57
2022/11/14 10:32:11;;;;;;;;;;;;;;;10.88;64.22;101902.84;5072716;28;19959;-57
2022/11/14 10:34:43;;;;;;;;;;;;;;;10.84;64.27;101895.97;5070944;28;19913;-57
2022/11/14 10:37:14;;;;;;;;;;;;;;;10.82;64.30;101901.31;5071724;28;19913;-60
2022/11/14 10:39:43;;;;;;;;;;;;;;;10.79;64.36;101897.94;5071752;28;19966;-57
2022/11/14 10:42:28;;;;;;;;;;;;;;;10.77;64.32;101894.50;5072873;28;19916;-60
2022/11/14 10:45:06;;;;;;;;;;;;;;;10.76;64.41;101895.44;5072303;28;20484;-58
2022/11/14 10:47:45;;;;;;;;;;;;;;;10.78;64.13;101896.22;5071069;28;19916;-57
2022/11/14 10:50:21;;;;;;;;;;;;;;;10.74;64.33;101886.72;5066742;28;19917;-58
2022/11/14 10:52:47;;;;;;;;;;;;;;;10.71;64.60;101876.31;5071274;28;19916;-57
2022/11/14 10:55:14;;;;;;;;;;;;;;;10.70;64.81;101878.13;5077694;28;19931;-59
2022/11/14 10:57:40;;;;;;;;;;;;;;;10.67;65.03;101888.75;5069780;28;19920;-57
2022/11/14 11:00:12;;;;;;;;;;;;;;;10.66;64.94;101887.88;5069053;28;20356;-57
2022/11/14 11:02:54;;;;;;;;;;;;;;;10.68;65.33;101886.06;5070395;28;19920;-57
2022/11/14 11:05:24;;;;;;;;;;;;;;;10.70;65.33;101885.13;5073430;28;19924;-57
2022/11/14 11:13:47;;;;;;;;;;;;;;;10.74;65.28;101869.16;5071567;28;19923;-57
2022/11/14 11:16:13;;;;;;;;;;;;;;;10.74;64.94;101863.03;5063141;28;19925;-58
2022/11/14 11:18:38;;;;;;;;;;;;;;;10.76;64.98;101863.84;5071932;28;19986;-57
2022/11/14 11:21:04;;;;;;;;;;;;;;;10.74;64.89;101868.31;5072399;28;19931;-57
2022/11/14 11:23:29;;;;;;;;;;;;;;;10.72;65.15;101870.13;5073135;28;20337;-57
2022/11/14 11:26:07;;;;;;;;;;;;;;;10.74;65.07;101860.41;5072189;28;20340;-59
2022/11/14 11:28:34;;;;;;;;;;;;;;;10.78;65.06;101859.38;5075428;28;19916;-58
2022/11/14 11:31:00;;;;;;;;;;;;;;;10.80;64.86;101842.59;5070194;28;19923;-56
2022/11/14 11:33:30;;;;;;;;;;;;;;;10.82;64.76;101846.00;5077336;28;19912;-58
2022/11/14 11:35:57;;;;;;;;;;;;;;;10.76;64.62;101845.41;5077212;28;19956;-57
2022/11/14 11:38:27;;;;;;;;;;;;;;;10.77;64.67;101826.06;5070311;28;19916;-61
2022/11/14 11:41:00;;;;;;;;;;;;;;;10.76;64.59;101819.09;5071058;28;20341;-60
2022/11/14 11:43:32;;;;;;;;;;;;;;;10.74;64.95;101820.91;5073686;28;19919;-57
2022/11/14 11:46:01;;;;;;;;;;;;;;;10.73;64.91;101813.94;5067452;28;20295;-57
2022/11/14 11:48:37;;;;;;;;;;;;;;;10.73;65.25;101821.84;5074411;28;19912;-59
2022/11/14 11:51:03;;;;;;;;;;;;;;;10.71;65.22;101814.00;5074589;28;19925;-57
2022/11/14 11:53:33;;;;;;;;;;;;;;;10.74;65.10;101820.91;5066327;28;20357;-61
2022/11/14 11:56:01;;;;;;;;;;;;;;;10.75;65.32;101812.09;5071600;28;20307;-59
2022/11/14 11:58:36;;;;;;;;;;;;;;;10.75;65.42;101809.47;5069909;28;19917;-60
2022/11/14 12:01:02;;;;;;;;;;;;;;;10.76;65.33;101803.28;5068838;28;19916;-57
2022/11/14 12:03:27;;;;;;;;;;;;;;;10.77;65.20;101797.94;5073928;28;19916;-58
2022/11/14 12:05:58;;;;;;;;;;;;;;;10.76;65.26;101796.22;5078534;28;19926;-56
2022/11/14 12:08:24;;;;;;;;;;;;;;;10.77;65.32;101799.75;5067053;28;19944;-58
2022/11/14 12:10:49;;;;;;;;;;;;;;;10.77;65.43;101799.75;5071192;28;20402;-61
2022/11/14 12:13:14;;;;;;;;;;;;;;;10.79;65.26;101792.63;5069546;28;19923;-57
2022/11/14 12:15:43;;;;;;;;;;;;;;;10.73;65.42;101793.75;5066130;28;20011;-62
2022/11/14 12:18:11;;;;;;;;;;;;;;;10.72;65.35;101780.63;5065252;28;19924;-56
2022/11/14 12:20:39;;;;;;;;;;;;;;;10.68;65.35;101772.03;5061049;28;20016;-57
2022/11/14 12:23:14;;;;;;;;;;;;;;;10.72;65.38;101780.63;5069288;28;19990;-57
2022/11/14 12:25:57;;;;;;;;;;;;;;;10.73;65.44;101775.31;5068706;28;20341;-57
2022/11/14 12:28:38;;;;;;;;;;;;;;;10.76;65.52;101775.16;5069867;28;20049;-59
2022/11/14 12:31:04;;;;;;;;;;;;;;;10.77;65.77;101768.16;5071416;28;19920;-57
2022/11/14 12:33:33;;;;;;;;;;;;;;;10.80;65.72;101776.75;5066890;28;19921;-57
2022/11/14 12:36:00;;;;;;;;;;;;;;;10.82;65.63;101774.06;5067206;28;20423;-58
2022/11/14 12:38:31;;;;;;;;;;;;;;;10.83;65.33;101763.47;5070322;28;19947;-60
2022/11/14 12:40:59;;;;;;;;;;;;;;;10.87;65.40;101761.56;5065466;28;19948;-57
2022/11/14 12:43:34;;;;;;;;;;;;;;;10.88;65.54;101760.66;5070781;28;19951;-57
2022/11/14 12:46:08;;;;;;;;;;;;;;;10.89;65.59;101757.09;5066570;28;19916;-57
2022/11/14 12:48:34;;;;;;;;;;;;;;;10.93;65.39;101752.53;5070704;28;20160;-58